Time;durP1;ratioP1;P1;durP2;ratioP2;P2;SDS_P1;SDS_P2;PMS_P1;PMS_P2;Temp;Humidity;BMP_temperature;BMP_pressure;BME280_temperature;BME280_humidity;BME280_pressure;Samples;Min_cycle;Max_cycle;Signal;HPM_P1;HPM_P2
2021/12/09 00:00:48;;;;;;;14.77;12.00;;;5.30;99.90;;;;;;5019179;28;20445;-87
2021/12/09 00:03:14;;;;;;;13.90;11.63;;;5.20;99.90;;;;;;5023958;28;20473;-87
2021/12/09 00:05:43;;;;;;;11.97;8.30;;;5.20;99.90;;;;;;5024849;28;20481;-87
2021/12/09 00:08:12;;;;;;;10.30;6.47;;;5.20;99.90;;;;;;5019756;28;20558;-88
2021/12/09 00:10:39;;;;;;;10.70;7.07;;;5.20;99.90;;;;;;5019482;28;20504;-87
2021/12/09 00:13:07;;;;;;;8.90;6.10;;;5.20;99.90;;;;;;5020077;28;20461;-88
2021/12/09 00:15:35;;;;;;;9.53;5.70;;;5.20;99.90;;;;;;5021945;28;20778;-88
2021/12/09 00:18:02;;;;;;;12.43;5.63;;;5.20;99.90;;;;;;5018576;28;20485;-88
2021/12/09 00:20:29;;;;;;;6.40;5.20;;;5.20;99.90;;;;;;5017942;28;20499;-88
2021/12/09 00:22:55;;;;;;;11.47;4.00;;;5.20;99.90;;;;;;5020713;28;20450;-88
2021/12/09 00:25:24;;;;;;;6.23;4.17;;;5.20;99.90;;;;;;5025778;28;20465;-88
2021/12/09 00:27:51;;;;;;;5.10;3.67;;;5.20;99.90;;;;;;5030784;28;20463;-87
2021/12/09 00:30:20;;;;;;;8.83;3.80;;;5.20;99.90;;;;;;5037933;28;20502;-88
2021/12/09 00:32:46;;;;;;;9.73;3.73;;;5.10;99.90;;;;;;5039548;28;20457;-87
2021/12/09 00:35:15;;;;;;;4.67;2.63;;;5.10;99.90;;;;;;5032673;28;20462;-87
2021/12/09 00:37:53;;;;;;;4.40;3.60;;;5.10;99.90;;;;;;5023154;28;20982;-88
2021/12/09 00:40:20;;;;;;;7.00;3.13;;;5.10;99.90;;;;;;5029069;28;20454;-88
2021/12/09 00:42:48;;;;;;;7.53;3.53;;;5.10;99.90;;;;;;5021577;28;20454;-89
2021/12/09 00:45:15;;;;;;;5.30;2.80;;;5.10;99.90;;;;;;5018465;28;20493;-88
2021/12/09 00:47:42;;;;;;;8.93;3.43;;;5.00;99.90;;;;;;5016902;28;20477;-88
2021/12/09 00:50:10;;;;;;;6.03;3.13;;;5.00;99.90;;;;;;5018685;28;20457;-89
2021/12/09 00:52:37;;;;;;;7.00;3.13;;;5.00;99.90;;;;;;5016517;28;20450;-89
2021/12/09 00:55:06;;;;;;;5.63;3.23;;;5.00;99.90;;;;;;5020939;28;20446;-89
2021/12/09 00:57:34;;;;;;;12.27;3.57;;;5.00;99.90;;;;;;5038116;28;20442;-87
2021/12/09 01:00:03;;;;;;;5.30;2.93;;;5.00;99.90;;;;;;5023270;28;20447;-88
2021/12/09 01:02:30;;;;;;;4.93;2.93;;;5.00;99.90;;;;;;5016847;28;20457;-88
2021/12/09 01:04:57;;;;;;;7.03;4.03;;;5.00;99.90;;;;;;5016948;28;20536;-89
2021/12/09 01:07:23;;;;;;;7.70;3.93;;;5.00;99.90;;;;;;5016398;28;20450;-88
2021/12/09 01:09:50;;;;;;;8.37;3.90;;;5.00;99.90;;;;;;5015538;28;20542;-87
2021/12/09 01:12:17;;;;;;;10.10;4.73;;;5.00;99.90;;;;;;5016192;28;20458;-89
2021/12/09 01:14:44;;;;;;;5.17;3.27;;;5.10;99.90;;;;;;5016611;28;20815;-88
2021/12/09 01:17:12;;;;;;;8.17;3.40;;;5.10;99.90;;;;;;5018406;28;20442;-88
2021/12/09 01:19:40;;;;;;;8.23;3.83;;;5.00;99.90;;;;;;5017501;28;20469;-88
2021/12/09 01:22:07;;;;;;;8.07;3.80;;;5.00;99.90;;;;;;5030542;28;20447;-89
2021/12/09 01:24:34;;;;;;;16.87;5.60;;;5.00;99.90;;;;;;5037655;28;21295;-88
2021/12/09 01:27:01;;;;;;;6.30;3.40;;;5.00;99.90;;;;;;5017508;28;20931;-88
2021/12/09 01:29:34;;;;;;;7.40;4.23;;;5.00;99.90;;;;;;5017176;28;20468;-89
2021/12/09 01:32:02;;;;;;;8.90;4.20;;;5.00;99.90;;;;;;5018776;28;20457;-89
2021/12/09 01:34:30;;;;;;;8.30;4.80;;;5.00;99.90;;;;;;5017611;28;20540;-88
2021/12/09 01:36:57;;;;;;;5.80;3.40;;;5.00;99.90;;;;;;5017035;28;20454;-88
2021/12/09 01:39:26;;;;;;;7.87;4.10;;;5.00;99.90;;;;;;5017056;28;20479;-89
2021/12/09 01:41:53;;;;;;;9.23;3.80;;;5.00;99.90;;;;;;5016888;28;20473;-88
2021/12/09 01:44:21;;;;;;;7.13;3.73;;;5.00;99.90;;;;;;5016922;28;20446;-88
2021/12/09 01:46:48;;;;;;;5.77;3.80;;;5.00;99.90;;;;;;5017577;28;20481;-88
2021/12/09 01:49:16;;;;;;;9.30;3.83;;;4.90;99.90;;;;;;5016419;28;20992;-87
2021/12/09 01:51:45;;;;;;;8.13;4.07;;;5.00;99.90;;;;;;5015985;28;20450;-88
2021/12/09 01:54:12;;;;;;;7.70;3.43;;;4.80;99.90;;;;;;5016647;28;20831;-88
2021/12/09 01:56:39;;;;;;;10.03;3.63;;;4.80;99.90;;;;;;5016419;28;20454;-87
2021/12/09 01:59:07;;;;;;;8.97;4.30;;;4.80;99.90;;;;;;5016235;28;20829;-88
2021/12/09 02:01:35;;;;;;;7.00;3.10;;;4.80;99.90;;;;;;5015193;28;20874;-88
2021/12/09 02:04:05;;;;;;;6.17;3.40;;;4.80;99.90;;;;;;5016203;28;20526;-88
2021/12/09 02:06:34;;;;;;;7.57;3.30;;;4.80;99.90;;;;;;5015459;28;20486;-88
2021/12/09 02:09:02;;;;;;;7.60;4.20;;;4.90;99.90;;;;;;5015727;28;20458;-88
2021/12/09 02:11:29;;;;;;;6.70;3.60;;;4.90;99.90;;;;;;5017571;28;20453;-89
2021/12/09 02:13:57;;;;;;;4.93;3.10;;;4.80;99.90;;;;;;5020504;28;20454;-88
2021/12/09 02:16:24;;;;;;;5.30;3.47;;;4.90;99.90;;;;;;5016366;28;20448;-88
2021/12/09 02:18:52;;;;;;;5.63;2.97;;;4.90;99.90;;;;;;5015562;28;20543;-87
2021/12/09 02:21:22;;;;;;;8.63;4.00;;;4.80;99.90;;;;;;5017517;28;20446;-87
2021/12/09 02:23:51;;;;;;;6.97;4.00;;;4.90;99.90;;;;;;5015019;28;20494;-89
2021/12/09 02:26:21;;;;;;;4.43;3.23;;;4.80;99.90;;;;;;5006972;28;20482;-87
2021/12/09 02:28:51;;;;;;;5.57;3.40;;;4.90;99.90;;;;;;4996533;28;20467;-88
2021/12/09 02:31:18;;;;;;;5.23;2.93;;;4.90;99.90;;;;;;5002147;28;20445;-88
2021/12/09 02:33:45;;;;;;;7.07;3.80;;;4.80;99.90;;;;;;4996209;28;20481;-86
2021/12/09 02:36:12;;;;;;;3.10;2.80;;;4.80;99.90;;;;;;5018414;28;20464;-88
2021/12/09 02:38:44;;;;;;;10.77;6.37;;;4.80;99.90;;;;;;5020771;28;20469;-87
2021/12/09 02:41:15;;;;;;;8.80;3.13;;;4.80;99.90;;;;;;5033469;28;20456;-88
2021/12/09 02:43:42;;;;;;;7.07;4.07;;;4.80;99.90;;;;;;5014454;28;20520;-87
2021/12/09 02:46:09;;;;;;;4.90;3.50;;;4.80;99.90;;;;;;5019049;28;20493;-88
2021/12/09 02:48:36;;;;;;;7.60;4.60;;;4.80;99.90;;;;;;5021313;28;20477;-87
2021/12/09 02:51:07;;;;;;;10.63;5.17;;;4.80;99.90;;;;;;5037418;28;20429;-88
2021/12/09 02:53:35;;;;;;;6.67;4.33;;;4.80;99.90;;;;;;5024191;28;20468;-88
2021/12/09 02:56:04;;;;;;;6.03;5.03;;;4.80;99.90;;;;;;5014430;28;20445;-87
2021/12/09 02:58:32;;;;;;;6.53;5.60;;;4.80;99.90;;;;;;5013291;28;21011;-88
2021/12/09 03:01:02;;;;;;;5.83;4.43;;;4.80;99.90;;;;;;5013245;28;20975;-87
2021/12/09 03:03:29;;;;;;;7.57;5.67;;;4.80;99.90;;;;;;5013062;28;20449;-88
2021/12/09 03:05:59;;;;;;;10.20;6.67;;;4.90;99.90;;;;;;5012401;28;20486;-88
2021/12/09 03:08:34;;;;;;;9.00;6.60;;;4.90;99.90;;;;;;5012370;28;20880;-88
2021/12/09 03:11:05;;;;;;;8.97;6.20;;;4.90;99.90;;;;;;5013794;28;20515;-88
2021/12/09 03:13:31;;;;;;;8.67;6.43;;;4.90;99.90;;;;;;5012561;28;20445;-88
2021/12/09 03:15:59;;;;;;;9.23;6.60;;;4.90;99.90;;;;;;5013158;28;20442;-88
2021/12/09 03:18:25;;;;;;;11.03;7.77;;;4.90;99.90;;;;;;5011491;28;20519;-88
2021/12/09 03:20:52;;;;;;;13.43;7.70;;;5.00;99.90;;;;;;5012284;28;20453;-89
2021/12/09 03:23:19;;;;;;;8.00;7.17;;;5.00;99.90;;;;;;5012388;28;20457;-88
2021/12/09 03:25:46;;;;;;;8.40;6.63;;;5.00;99.90;;;;;;5012704;28;20951;-88
2021/12/09 03:28:14;;;;;;;12.73;6.87;;;5.00;99.90;;;;;;5012703;28;20466;-88
2021/12/09 03:30:41;;;;;;;13.70;7.10;;;5.00;99.90;;;;;;5012745;28;20450;-88
2021/12/09 03:33:08;;;;;;;13.33;6.70;;;5.00;99.90;;;;;;5012241;28;20480;-88
2021/12/09 03:35:35;;;;;;;9.17;6.63;;;5.00;99.90;;;;;;5012072;28;20458;-88
2021/12/09 03:38:01;;;;;;;12.60;6.87;;;5.00;99.90;;;;;;5012138;28;21005;-88
2021/12/09 03:40:28;;;;;;;11.30;8.17;;;5.00;99.90;;;;;;5012372;28;20453;-89
2021/12/09 03:42:55;;;;;;;14.17;6.87;;;5.00;99.90;;;;;;5012002;28;20468;-89
2021/12/09 03:45:23;;;;;;;10.03;6.70;;;4.90;99.90;;;;;;5013838;28;20481;-87
2021/12/09 03:47:50;;;;;;;13.83;7.23;;;4.90;99.90;;;;;;5014909;28;21136;-87
2021/12/09 03:50:18;;;;;;;14.03;7.10;;;5.00;99.90;;;;;;5036201;28;20430;-87
2021/12/09 03:52:45;;;;;;;9.10;7.27;;;5.00;99.90;;;;;;5039777;28;20485;-86
2021/12/09 03:55:12;;;;;;;8.13;7.03;;;5.00;99.90;;;;;;5025630;28;20465;-88
2021/12/09 03:57:38;;;;;;;10.17;7.27;;;5.00;99.90;;;;;;5015442;28;20472;-87
2021/12/09 04:00:08;;;;;;;12.13;6.80;;;5.00;99.90;;;;;;5016409;28;20461;-88
2021/12/09 04:02:36;;;;;;;11.37;7.17;;;5.00;99.90;;;;;;5015755;28;20968;-87
2021/12/09 04:05:03;;;;;;;12.97;6.73;;;5.00;99.90;;;;;;5016279;28;20464;-87
2021/12/09 04:07:30;;;;;;;14.90;8.20;;;4.90;99.90;;;;;;5015773;28;20477;-87
2021/12/09 04:09:56;;;;;;;10.27;7.47;;;4.90;99.90;;;;;;5015234;28;20455;-87
2021/12/09 04:12:23;;;;;;;11.57;7.20;;;4.90;99.90;;;;;;5016470;28;20453;-89
2021/12/09 04:14:50;;;;;;;9.80;7.20;;;4.90;99.90;;;;;;5016297;28;20509;-87
2021/12/09 04:17:17;;;;;;;10.90;6.23;;;4.90;99.90;;;;;;5015054;28;20459;-88
2021/12/09 04:19:47;;;;;;;10.20;6.90;;;4.90;99.90;;;;;;5015073;28;20461;-88
2021/12/09 04:22:15;;;;;;;14.00;7.43;;;4.90;99.90;;;;;;5022717;28;20445;-88
2021/12/09 04:24:42;;;;;;;16.60;7.93;;;4.90;99.90;;;;;;5016836;28;20481;-87
2021/12/09 04:27:09;;;;;;;10.67;6.30;;;4.90;99.90;;;;;;5015352;28;20477;-88
2021/12/09 04:29:36;;;;;;;10.03;6.57;;;4.90;99.90;;;;;;5015496;28;20470;-88
2021/12/09 04:32:03;;;;;;;8.87;6.33;;;4.90;99.90;;;;;;5020734;28;20461;-87
2021/12/09 04:34:30;;;;;;;10.30;7.00;;;4.80;99.90;;;;;;5014929;28;20450;-88
2021/12/09 04:36:58;;;;;;;9.60;7.77;;;4.80;99.90;;;;;;5014803;28;20528;-87
2021/12/09 04:39:25;;;;;;;10.93;6.17;;;4.80;99.90;;;;;;5014864;28;20489;-87
2021/12/09 04:41:54;;;;;;;15.37;6.93;;;4.70;99.90;;;;;;5017478;28;20443;-87
2021/12/09 04:44:31;;;;;;;10.13;6.77;;;4.70;99.90;;;;;;5038765;28;20472;-87
2021/12/09 04:46:57;;;;;;;9.37;7.17;;;4.70;99.90;;;;;;5022933;28;20493;-88
2021/12/09 04:49:24;;;;;;;20.80;7.07;;;4.80;99.90;;;;;;5023078;28;20442;-86
2021/12/09 04:51:52;;;;;;;11.07;6.07;;;4.80;99.90;;;;;;5032294;28;20449;-87
2021/12/09 04:54:20;;;;;;;13.20;7.60;;;4.70;99.90;;;;;;5014710;28;20453;-87
2021/12/09 04:56:56;;;;;;;15.23;7.30;;;4.80;99.90;;;;;;5015015;28;20457;-87
2021/12/09 04:59:22;;;;;;;8.93;7.03;;;4.80;99.90;;;;;;5025032;28;20461;-88
2021/12/09 05:01:50;;;;;;;7.87;6.30;;;4.80;99.90;;;;;;5032852;28;20457;-86
2021/12/09 05:04:17;;;;;;;12.10;6.30;;;4.80;99.90;;;;;;5036602;28;20464;-86
2021/12/09 05:06:44;;;;;;;11.47;7.20;;;4.80;99.90;;;;;;5034298;28;20474;-87
2021/12/09 05:09:16;;;;;;;10.17;6.17;;;4.90;99.90;;;;;;5020032;28;20485;-89
2021/12/09 05:11:51;;;;;;;12.33;6.73;;;4.90;99.90;;;;;;5015048;28;20461;-87
2021/12/09 05:14:19;;;;;;;8.67;5.60;;;4.90;99.90;;;;;;5015081;28;20513;-87
2021/12/09 05:16:50;;;;;;;11.90;6.00;;;4.90;99.90;;;;;;5014229;28;20446;-88
2021/12/09 05:19:16;;;;;;;6.43;4.80;;;4.90;99.90;;;;;;5029905;28;20535;-86
2021/12/09 05:21:43;;;;;;;11.53;5.50;;;4.80;99.90;;;;;;5034088;28;20452;-88
2021/12/09 05:24:11;;;;;;;8.43;4.53;;;4.80;99.90;;;;;;5024785;28;20454;-88
2021/12/09 05:26:44;;;;;;;18.33;6.30;;;4.70;99.90;;;;;;5019183;28;20841;-87
2021/12/09 05:29:13;;;;;;;6.10;4.80;;;4.70;99.90;;;;;;5026045;28;20577;-88
2021/12/09 05:34:25;;;;;;;10.43;5.60;;;4.70;99.90;;;;;;5015195;28;20465;-88
2021/12/09 05:36:52;;;;;;;8.63;5.33;;;4.80;99.90;;;;;;5017623;28;20454;-87
2021/12/09 05:39:19;;;;;;;13.73;6.97;;;4.90;99.90;;;;;;5013917;28;20472;-87
2021/12/09 05:41:47;;;;;;;7.00;4.87;;;4.80;99.90;;;;;;5014835;28;20452;-86
2021/12/09 05:44:15;;;;;;;10.80;6.80;;;4.90;99.90;;;;;;5014515;28;20830;-87
2021/12/09 05:46:45;;;;;;;11.80;4.80;;;4.90;99.90;;;;;;5014709;28;20492;-87
2021/12/09 05:49:13;;;;;;;6.00;4.67;;;4.90;99.90;;;;;;5019871;28;20462;-87
2021/12/09 05:51:40;;;;;;;10.17;4.80;;;4.90;99.90;;;;;;5019037;28;20836;-87
2021/12/09 05:54:08;;;;;;;9.10;4.30;;;4.90;99.90;;;;;;5014840;28;20438;-88
2021/12/09 05:56:35;;;;;;;6.40;4.30;;;4.80;99.90;;;;;;5014273;28;20454;-88
2021/12/09 05:59:03;;;;;;;7.77;4.30;;;4.90;99.90;;;;;;5013941;28;20470;-88
2021/12/09 06:01:31;;;;;;;7.77;4.97;;;4.90;99.90;;;;;;5014425;28;20461;-88
2021/12/09 06:03:58;;;;;;;8.70;4.40;;;4.90;99.90;;;;;;5015861;28;20463;-89
2021/12/09 06:06:25;;;;;;;8.83;3.47;;;4.90;99.90;;;;;;5013448;28;20865;-88
2021/12/09 06:08:51;;;;;;;10.90;4.60;;;4.90;99.90;;;;;;5014989;28;20477;-89
2021/12/09 06:11:18;;;;;;;5.77;3.80;;;4.90;99.90;;;;;;5013432;28;20462;-88
2021/12/09 06:13:47;;;;;;;7.93;3.67;;;4.90;99.90;;;;;;5021106;28;20453;-88
2021/12/09 06:16:14;;;;;;;8.00;3.93;;;4.80;99.90;;;;;;5017676;28;20512;-89
2021/12/09 06:18:42;;;;;;;6.33;3.67;;;4.80;99.90;;;;;;5014041;28;20484;-88
2021/12/09 06:21:09;;;;;;;4.17;3.00;;;4.80;99.90;;;;;;5015398;28;20954;-89
2021/12/09 06:23:35;;;;;;;14.40;4.10;;;4.70;99.90;;;;;;5015709;28;20457;-87
2021/12/09 06:26:02;;;;;;;5.30;3.80;;;4.70;99.90;;;;;;5020057;28;20481;-88
2021/12/09 06:28:29;;;;;;;7.27;4.90;;;4.70;99.90;;;;;;5015194;28;20476;-88
2021/12/09 06:30:56;;;;;;;6.37;3.10;;;4.70;99.90;;;;;;5023299;28;20520;-86
2021/12/09 06:33:23;;;;;;;5.60;3.43;;;4.80;99.90;;;;;;5029952;28;20974;-89
2021/12/09 06:35:51;;;;;;;6.63;3.80;;;4.70;99.90;;;;;;5029964;28;20946;-88
2021/12/09 06:38:18;;;;;;;7.87;4.50;;;4.80;99.90;;;;;;5033923;28;20481;-87
2021/12/09 06:40:45;;;;;;;6.20;3.10;;;4.80;99.90;;;;;;5020866;28;20453;-89
2021/12/09 06:43:13;;;;;;;5.80;3.80;;;4.80;99.90;;;;;;5023133;28;20455;-87
2021/12/09 06:45:41;;;;;;;14.03;4.40;;;4.80;99.90;;;;;;5021947;28;20481;-88
2021/12/09 06:48:08;;;;;;;5.67;3.27;;;4.90;99.90;;;;;;5014576;28;20481;-88
2021/12/09 06:50:35;;;;;;;6.07;3.93;;;4.90;99.90;;;;;;5020519;28;20458;-89
2021/12/09 06:53:04;;;;;;;9.70;4.90;;;4.90;99.90;;;;;;5020235;28;20448;-88
2021/12/09 06:55:32;;;;;;;5.40;3.20;;;4.90;99.90;;;;;;5020604;28;20446;-88
2021/12/09 06:57:59;;;;;;;6.63;4.10;;;4.90;99.90;;;;;;5037905;28;20468;-86
2021/12/09 07:00:27;;;;;;;8.27;3.83;;;4.90;99.90;;;;;;5017871;28;20969;-87
2021/12/09 07:02:55;;;;;;;10.87;3.93;;;4.80;99.90;;;;;;5018308;28;20462;-87
2021/12/09 07:05:24;;;;;;;7.07;3.70;;;4.90;99.90;;;;;;5022795;28;20446;-87
2021/12/09 07:07:51;;;;;;;7.10;3.70;;;4.90;99.90;;;;;;5018076;28;20860;-88
2021/12/09 07:10:21;;;;;;;6.40;3.40;;;4.90;99.90;;;;;;5022198;28;20466;-88
2021/12/09 07:12:48;;;;;;;10.40;4.27;;;5.00;99.90;;;;;;5031165;28;20455;-85
2021/12/09 07:15:17;;;;;;;6.10;3.57;;;5.00;99.90;;;;;;5041719;28;20460;-86
2021/12/09 07:17:44;;;;;;;7.13;3.77;;;5.00;99.90;;;;;;5036038;28;20451;-85
2021/12/09 07:20:15;;;;;;;9.27;5.20;;;5.00;99.90;;;;;;5027229;28;20445;-88
2021/12/09 07:22:41;;;;;;;8.57;3.80;;;5.00;99.90;;;;;;5022466;28;20478;-87
2021/12/09 07:25:09;;;;;;;6.53;3.37;;;5.00;99.90;;;;;;5024110;28;20452;-86
2021/12/09 07:27:37;;;;;;;10.67;3.70;;;5.10;99.90;;;;;;5018832;28;20488;-87
2021/12/09 07:30:06;;;;;;;7.50;3.60;;;5.10;99.90;;;;;;5022922;28;20453;-88
2021/12/09 07:32:33;;;;;;;4.40;2.83;;;5.20;99.90;;;;;;5022134;28;20450;-88
2021/12/09 07:35:00;;;;;;;3.73;2.73;;;5.20;99.90;;;;;;5036014;28;20446;-87
2021/12/09 07:37:27;;;;;;;5.57;3.33;;;5.20;99.90;;;;;;5033811;28;20445;-88
2021/12/09 07:39:54;;;;;;;7.67;4.60;;;5.20;99.90;;;;;;5021846;28;20456;-88
2021/12/09 07:42:20;;;;;;;7.70;3.33;;;5.30;99.90;;;;;;5023050;28;20464;-87
2021/12/09 07:44:48;;;;;;;8.47;3.60;;;5.30;99.90;;;;;;5021448;28;20445;-88
2021/12/09 07:47:17;;;;;;;5.93;3.43;;;5.30;99.90;;;;;;5023571;28;20599;-88
2021/12/09 07:49:44;;;;;;;8.10;3.90;;;5.40;99.90;;;;;;5022097;28;20460;-89
2021/12/09 07:52:11;;;;;;;7.40;3.67;;;5.40;99.90;;;;;;5017915;28;20453;-88
2021/12/09 07:54:38;;;;;;;5.43;3.40;;;5.40;99.90;;;;;;5018006;28;20456;-88
2021/12/09 07:57:05;;;;;;;7.17;5.00;;;5.40;99.90;;;;;;5023601;28;20440;-87
2021/12/09 07:59:31;;;;;;;6.27;3.43;;;5.40;99.90;;;;;;5020917;28;20461;-88
2021/12/09 08:02:00;;;;;;;4.93;3.63;;;5.50;99.90;;;;;;5015432;28;20445;-88
2021/12/09 08:04:26;;;;;;;9.57;3.43;;;5.60;99.90;;;;;;5029401;28;20451;-87
2021/12/09 08:06:53;;;;;;;5.30;3.93;;;5.60;99.90;;;;;;5039615;28;20481;-88
2021/12/09 08:09:20;;;;;;;5.93;3.80;;;5.60;99.90;;;;;;5020810;28;20470;-88
2021/12/09 08:11:47;;;;;;;4.77;4.33;;;5.60;99.90;;;;;;5024073;28;20437;-88
2021/12/09 08:14:16;;;;;;;3.63;3.10;;;5.70;99.90;;;;;;5026905;28;20539;-87
2021/12/09 08:16:43;;;;;;;5.00;3.37;;;5.70;99.90;;;;;;5022509;28;20497;-87
2021/12/09 08:19:13;;;;;;;5.60;4.10;;;5.80;99.90;;;;;;5035544;28;20533;-88
2021/12/09 08:21:41;;;;;;;5.90;3.90;;;5.80;99.90;;;;;;5026181;28;20454;-88
2021/12/09 08:24:10;;;;;;;4.23;3.50;;;5.80;99.90;;;;;;5022710;28;20533;-88
2021/12/09 08:26:37;;;;;;;6.67;3.43;;;5.90;99.90;;;;;;5020506;28;20480;-89
2021/12/09 08:29:05;;;;;;;5.97;3.70;;;5.90;99.90;;;;;;5038692;28;20477;-88
2021/12/09 08:31:33;;;;;;;6.07;3.30;;;5.90;99.90;;;;;;5032274;28;20465;-88
2021/12/09 08:34:00;;;;;;;5.50;3.53;;;5.90;99.90;;;;;;5018999;28;20995;-88
2021/12/09 08:36:29;;;;;;;6.87;3.67;;;5.90;99.90;;;;;;5021176;28;20466;-86
2021/12/09 08:38:55;;;;;;;6.23;3.80;;;5.90;99.90;;;;;;5018838;28;21111;-88
2021/12/09 08:41:24;;;;;;;6.50;4.30;;;5.90;99.90;;;;;;5025477;28;20501;-87
2021/12/09 08:43:50;;;;;;;4.77;3.87;;;5.90;99.90;;;;;;5021526;28;20456;-88
2021/12/09 08:46:17;;;;;;;4.30;3.87;;;5.90;99.90;;;;;;5017101;28;20453;-88
2021/12/09 08:48:46;;;;;;;4.10;3.70;;;5.90;99.90;;;;;;5020133;28;20484;-88
2021/12/09 08:51:14;;;;;;;6.70;3.77;;;5.90;99.90;;;;;;5018689;28;20847;-88
2021/12/09 08:53:42;;;;;;;7.17;4.63;;;6.00;99.90;;;;;;5022755;28;20543;-87
2021/12/09 08:56:09;;;;;;;6.97;4.07;;;6.00;99.90;;;;;;5026155;28;20445;-85
2021/12/09 08:58:36;;;;;;;5.77;3.80;;;6.10;99.90;;;;;;5044021;28;20462;-86
2021/12/09 09:01:04;;;;;;;7.53;4.30;;;6.10;99.90;;;;;;5045935;28;20441;-85
2021/12/09 09:03:31;;;;;;;8.80;4.37;;;6.20;99.90;;;;;;5050287;28;20439;-85
2021/12/09 09:05:59;;;;;;;4.83;4.33;;;6.20;99.90;;;;;;5040032;28;20422;-87
2021/12/09 09:08:26;;;;;;;11.80;4.50;;;6.20;99.90;;;;;;5047050;28;20495;-86
2021/12/09 09:10:54;;;;;;;6.33;4.60;;;6.40;99.90;;;;;;5034141;28;20472;-87
2021/12/09 09:13:22;;;;;;;8.87;4.07;;;6.40;99.90;;;;;;5024518;28;20468;-87
2021/12/09 09:15:49;;;;;;;6.03;5.27;;;6.50;99.90;;;;;;5026537;28;20466;-87
2021/12/09 09:18:16;;;;;;;9.80;4.50;;;6.60;99.90;;;;;;5032456;28;20466;-89
2021/12/09 09:20:43;;;;;;;7.93;4.67;;;6.70;99.90;;;;;;5029821;28;20831;-89
2021/12/09 09:23:12;;;;;;;6.17;4.80;;;6.70;99.90;;;;;;5026891;28;20445;-88
2021/12/09 09:25:40;;;;;;;6.40;4.57;;;6.80;99.90;;;;;;5024678;28;20472;-87
2021/12/09 09:28:09;;;;;;;8.50;4.90;;;6.80;99.90;;;;;;5033663;28;20475;-87
2021/12/09 09:30:38;;;;;;;6.57;4.97;;;6.80;99.90;;;;;;5045069;28;20442;-89
2021/12/09 09:33:08;;;;;;;7.00;4.27;;;6.80;99.90;;;;;;5033395;28;20437;-87
2021/12/09 09:35:35;;;;;;;5.10;4.00;;;6.80;99.90;;;;;;5040468;28;20450;-87
2021/12/09 09:38:02;;;;;;;5.87;4.40;;;6.80;99.90;;;;;;5024902;28;20600;-86
2021/12/09 09:40:41;;;;;;;7.07;4.00;;;7.00;99.90;;;;;;5024484;28;20494;-87
2021/12/09 09:43:27;;;;;;;6.90;4.40;;;7.00;99.90;;;;;;5021443;28;20453;-88
2021/12/09 09:45:54;;;;;;;12.30;7.57;;;7.00;99.90;;;;;;5022221;28;20515;-88
2021/12/09 09:48:22;;;;;;;18.47;12.30;;;7.00;99.90;;;;;;5019284;28;20489;-88
2021/12/09 09:50:49;;;;;;;9.33;5.23;;;6.90;99.90;;;;;;5023609;28;20446;-89
2021/12/09 09:53:17;;;;;;;8.83;4.73;;;6.90;99.90;;;;;;5020289;28;20450;-88
2021/12/09 09:55:46;;;;;;;4.60;3.87;;;6.90;99.90;;;;;;5015625;28;20541;-86
2021/12/09 09:58:16;;;;;;;12.70;4.80;;;6.90;99.90;;;;;;5037968;28;20484;-85
2021/12/09 10:00:43;;;;;;;11.83;5.10;;;6.90;99.90;;;;;;5023229;28;20501;-85
2021/12/09 10:03:16;;;;;;;8.87;4.47;;;6.90;99.90;;;;;;5021545;28;20457;-86
2021/12/09 10:05:45;;;;;;;5.43;4.70;;;6.90;99.90;;;;;;5020977;28;20629;-88
2021/12/09 10:08:13;;;;;;;5.83;4.87;;;6.80;99.90;;;;;;5018350;28;20485;-85
2021/12/09 10:10:40;;;;;;;6.43;5.00;;;6.80;99.90;;;;;;5023917;28;20465;-85
2021/12/09 10:13:09;;;;;;;8.97;4.50;;;6.80;99.90;;;;;;5022737;28;20442;-86
2021/12/09 10:15:41;;;;;;;9.87;4.53;;;6.80;99.90;;;;;;5025942;28;20472;-84
2021/12/09 10:18:08;;;;;;;12.97;5.33;;;6.80;99.90;;;;;;5033554;28;20511;-84
2021/12/09 10:20:56;;;;;;;4.90;4.40;;;6.80;99.90;;;;;;5038329;28;20437;-86
2021/12/09 10:23:28;;;;;;;8.03;5.23;;;6.90;99.90;;;;;;5030682;28;20457;-84
2021/12/09 10:26:25;;;;;;;10.40;4.80;;;7.10;99.90;;;;;;5023710;28;20526;-87
2021/12/09 10:28:56;;;;;;;8.70;5.80;;;7.20;99.90;;;;;;4987365;28;20494;-86
2021/12/09 10:31:28;;;;;;;4.20;3.80;;;7.30;99.90;;;;;;5025017;28;20446;-86
2021/12/09 10:34:05;;;;;;;5.50;4.07;;;7.30;99.90;;;;;;5019350;28;20525;-85
2021/12/09 10:36:47;;;;;;;4.20;3.60;;;7.10;99.90;;;;;;5027631;28;20457;-85
2021/12/09 10:39:17;;;;;;;10.77;6.80;;;7.00;99.90;;;;;;5030002;28;20472;-86
2021/12/09 10:41:43;;;;;;;3.93;3.50;;;7.10;99.90;;;;;;5038363;28;20446;-86
2021/12/09 10:44:11;;;;;;;5.27;3.57;;;7.10;99.90;;;;;;5020360;28;20454;-86
2021/12/09 10:46:52;;;;;;;5.03;4.20;;;7.20;99.90;;;;;;5017999;28;20446;-86
2021/12/09 10:49:19;;;;;;;7.57;3.53;;;7.20;99.90;;;;;;5020523;28;21065;-85
2021/12/09 10:51:56;;;;;;;11.07;7.60;;;7.40;99.90;;;;;;5020401;28;20464;-86
2021/12/09 10:54:37;;;;;;;9.83;3.63;;;7.40;99.90;;;;;;5021775;28;20459;-86
2021/12/09 10:57:24;;;;;;;5.93;3.80;;;7.30;99.90;;;;;;5015986;28;20446;-86
2021/12/09 10:59:51;;;;;;;6.97;3.83;;;7.30;99.90;;;;;;5025221;28;20446;-87
2021/12/09 11:02:19;;;;;;;8.10;3.70;;;7.30;99.90;;;;;;5023224;28;20448;-85
2021/12/09 11:04:59;;;;;;;9.23;4.20;;;7.40;99.90;;;;;;5033747;28;20441;-86
2021/12/09 11:07:29;;;;;;;10.93;3.90;;;7.40;99.90;;;;;;5019822;28;20477;-86
2021/12/09 11:10:30;;;;;;;8.77;4.80;;;7.50;99.90;;;;;;5024508;28;20464;-86
2021/12/09 11:12:59;;;;;;;7.17;3.20;;;7.50;99.90;;;;;;4943514;29;20445;-85
2021/12/09 11:15:48;;;;;;;6.07;3.80;;;7.50;99.90;;;;;;4941371;29;20832;-86
2021/12/09 11:18:31;;;;;;;4.80;3.40;;;7.50;99.90;;;;;;5007213;28;20493;-83
2021/12/09 11:20:58;;;;;;;3.80;3.50;;;7.60;99.90;;;;;;5020357;28;20550;-86
2021/12/09 11:23:34;;;;;;;3.40;3.10;;;7.80;99.90;;;;;;5020370;28;20522;-86
2021/12/09 11:26:22;;;;;;;4.10;3.70;;;8.00;99.90;;;;;;5019792;28;20488;-85
2021/12/09 11:28:55;;;;;;;4.57;3.70;;;8.00;99.90;;;;;;5019678;28;20512;-86
2021/12/09 11:31:24;;;;;;;6.60;3.57;;;7.90;99.90;;;;;;5023705;28;20450;-85
2021/12/09 11:33:58;;;;;;;6.30;4.20;;;7.80;99.90;;;;;;5020223;28;20851;-85
2021/12/09 11:36:59;;;;;;;6.10;3.60;;;7.80;99.90;;;;;;5019208;28;20489;-85
2021/12/09 11:39:33;;;;;;;5.13;3.70;;;7.90;99.90;;;;;;5002608;28;20528;-85
2021/12/09 11:42:25;;;;;;;5.17;4.67;;;7.80;99.90;;;;;;5020606;28;20548;-85
2021/12/09 11:44:52;;;;;;;7.70;4.77;;;7.90;99.90;;;;;;5044877;28;20436;-84
2021/12/09 11:47:18;;;;;;;7.63;4.30;;;8.00;99.90;;;;;;5032440;28;20970;-85
2021/12/09 11:49:51;;;;;;;7.13;4.07;;;7.90;99.90;;;;;;5025715;28;20456;-85
2021/12/09 11:52:20;;;;;;;10.10;6.53;;;7.90;99.90;;;;;;5010431;28;20455;-87
2021/12/09 11:54:55;;;;;;;12.73;6.40;;;8.00;99.90;;;;;;5022913;28;20434;-86
2021/12/09 11:57:34;;;;;;;9.00;5.73;;;8.10;99.90;;;;;;5019118;28;20536;-85
2021/12/09 12:07:08;;;;;;;4.03;3.53;;;9.10;99.90;;;;;;5022750;28;20479;-86
2021/12/09 12:12:39;;;;;;;5.70;3.90;;;9.60;99.90;;;;;;5026175;28;20446;-87
2021/12/09 12:15:31;;;;;;;3.87;3.47;;;9.50;99.90;;;;;;5041901;28;20473;-87
2021/12/09 12:18:22;;;;;;;4.80;3.53;;;9.40;99.90;;;;;;5028511;28;20570;-88
2021/12/09 12:20:59;;;;;;;7.27;4.03;;;9.10;99.90;;;;;;5026912;28;20450;-86
2021/12/09 12:23:43;;;;;;;4.60;3.10;;;9.00;99.90;;;;;;5035197;28;20446;-88
2021/12/09 12:26:49;;;;;;;4.17;3.10;;;8.90;99.90;;;;;;5026174;28;20449;-88
2021/12/09 12:29:40;;;;;;;5.33;3.30;;;8.90;99.90;;;;;;5029434;28;21004;-87
2021/12/09 12:32:35;;;;;;;7.30;3.10;;;8.80;99.90;;;;;;5029587;28;20464;-86
2021/12/09 12:41:17;;;;;;;12.17;5.57;;;8.40;99.90;;;;;;5105304;28;20450;-85
2021/12/09 12:43:53;;;;;;;9.97;5.83;;;8.30;99.90;;;;;;5113266;28;20472;-85
2021/12/09 12:46:46;;;;;;;11.53;6.40;;;8.20;99.90;;;;;;5123730;28;20512;-85
2021/12/09 12:49:21;;;;;;;15.17;7.40;;;8.20;99.90;;;;;;5119659;28;20437;-87
2021/12/09 12:51:56;;;;;;;9.57;7.53;;;8.40;99.90;;;;;;5126519;28;20554;-88
2021/12/09 12:54:36;;;;;;;8.77;7.67;;;8.60;99.90;;;;;;5120253;28;20438;-88
2021/12/09 12:57:12;;;;;;;12.00;7.80;;;8.70;99.90;;;;;;5111926;28;20474;-87
2021/12/09 12:59:42;;;;;;;12.37;8.67;;;8.70;99.90;;;;;;5118462;28;20438;-85
2021/12/09 13:05:26;;;;;;;9.53;7.40;;;8.70;99.90;;;;;;5105493;28;20460;-87
2021/12/09 13:08:26;;;;;;;9.90;7.30;;;8.70;99.90;;;;;;5111205;28;20462;-88
2021/12/09 13:11:11;;;;;;;10.73;8.20;;;8.80;99.90;;;;;;5110208;28;20449;-87
2021/12/09 13:13:58;;;;;;;10.50;8.07;;;8.70;99.90;;;;;;5110057;28;20442;-86
2021/12/09 13:16:37;;;;;;;10.53;6.87;;;8.40;99.90;;;;;;5110253;28;20564;-87
2021/12/09 13:19:10;;;;;;;9.30;6.83;;;8.10;99.90;;;;;;5109771;28;20469;-87
2021/12/09 13:21:45;;;;;;;10.07;8.50;;;7.80;99.90;;;;;;5109425;28;20448;-87
2021/12/09 13:24:35;;;;;;;10.33;7.83;;;7.70;99.90;;;;;;5104178;28;20452;-87
2021/12/09 13:30:51;;;;;;;7.43;6.40;;;7.40;99.90;;;;;;5099602;28;20417;-87
2021/12/09 13:36:18;;;;;;;13.77;7.20;;;7.20;99.90;;;;;;5114834;28;20493;-86
2021/12/09 13:47:15;;;;;;;7.80;5.70;;;8.00;99.90;;;;;;5130456;27;20428;-86